sensor_id;sensor_type;location;lat;lon;timestamp;P1;durP1;ratioP1;P2;durP2;ratioP2
45232;SDS011;30969;51.052;17.056;2023-04-20T00:02:14;23.13;;;13.75;;
45232;SDS011;30969;51.052;17.056;2023-04-20T00:07:18;23.92;;;14.73;;
45232;SDS011;30969;51.052;17.056;2023-04-20T00:12:22;20.60;;;14.95;;
45232;SDS011;30969;51.052;17.056;2023-04-20T00:17:27;22.40;;;15.50;;
45232;SDS011;30969;51.052;17.056;2023-04-20T00:22:32;19.83;;;14.70;;
45232;SDS011;30969;51.052;17.056;2023-04-20T00:27:36;20.52;;;13.40;;
45232;SDS011;30969;51.052;17.056;2023-04-20T00:32:41;20.15;;;14.38;;
45232;SDS011;30969;51.052;17.056;2023-04-20T00:37:45;21.63;;;13.65;;
45232;SDS011;30969;51.052;17.056;2023-04-20T00:42:48;23.58;;;14.75;;
45232;SDS011;30969;51.052;17.056;2023-04-20T00:47:53;19.02;;;14.27;;
45232;SDS011;30969;51.052;17.056;2023-04-20T00:52:57;19.30;;;13.18;;
45232;SDS011;30969;51.052;17.056;2023-04-20T00:58:01;21.08;;;14.68;;
45232;SDS011;30969;51.052;17.056;2023-04-20T01:03:06;21.63;;;15.30;;
45232;SDS011;30969;51.052;17.056;2023-04-20T01:08:10;21.23;;;14.55;;
45232;SDS011;30969;51.052;17.056;2023-04-20T01:13:14;30.52;;;17.98;;
45232;SDS011;30969;51.052;17.056;2023-04-20T01:18:19;23.45;;;16.23;;
45232;SDS011;30969;51.052;17.056;2023-04-20T01:23:25;22.88;;;15.55;;
45232;SDS011;30969;51.052;17.056;2023-04-20T01:28:28;21.80;;;16.25;;
45232;SDS011;30969;51.052;17.056;2023-04-20T01:33:32;22.90;;;15.00;;
45232;SDS011;30969;51.052;17.056;2023-04-20T01:38:37;21.88;;;15.77;;
45232;SDS011;30969;51.052;17.056;2023-04-20T01:43:41;18.88;;;14.32;;
45232;SDS011;30969;51.052;17.056;2023-04-20T01:48:45;21.70;;;14.57;;
45232;SDS011;30969;51.052;17.056;2023-04-20T01:53:50;20.33;;;14.20;;
45232;SDS011;30969;51.052;17.056;2023-04-20T01:58:54;19.40;;;13.90;;
45232;SDS011;30969;51.052;17.056;2023-04-20T02:03:57;20.45;;;15.30;;
45232;SDS011;30969;51.052;17.056;2023-04-20T02:09:03;22.27;;;14.70;;
45232;SDS011;30969;51.052;17.056;2023-04-20T02:14:06;20.00;;;14.50;;
45232;SDS011;30969;51.052;17.056;2023-04-20T02:19:10;19.35;;;14.15;;
45232;SDS011;30969;51.052;17.056;2023-04-20T02:24:15;23.38;;;14.73;;
45232;SDS011;30969;51.052;17.056;2023-04-20T02:29:18;20.42;;;14.15;;
45232;SDS011;30969;51.052;17.056;2023-04-20T02:34:22;23.67;;;15.45;;
45232;SDS011;30969;51.052;17.056;2023-04-20T02:39:28;22.88;;;15.73;;
45232;SDS011;30969;51.052;17.056;2023-04-20T02:44:31;22.10;;;15.07;;
45232;SDS011;30969;51.052;17.056;2023-04-20T02:49:35;21.15;;;15.57;;
45232;SDS011;30969;51.052;17.056;2023-04-20T02:54:41;23.50;;;15.63;;
45232;SDS011;30969;51.052;17.056;2023-04-20T02:59:45;18.38;;;13.43;;
45232;SDS011;30969;51.052;17.056;2023-04-20T03:04:48;22.95;;;15.27;;
45232;SDS011;30969;51.052;17.056;2023-04-20T03:09:53;21.58;;;15.18;;
45232;SDS011;30969;51.052;17.056;2023-04-20T03:14:59;20.20;;;13.85;;
45232;SDS011;30969;51.052;17.056;2023-04-20T03:20:03;20.13;;;15.43;;
45232;SDS011;30969;51.052;17.056;2023-04-20T03:25:11;22.77;;;15.60;;
45232;SDS011;30969;51.052;17.056;2023-04-20T03:30:14;24.10;;;15.95;;
45232;SDS011;30969;51.052;17.056;2023-04-20T03:35:18;22.05;;;15.63;;
45232;SDS011;30969;51.052;17.056;2023-04-20T03:40:24;22.45;;;16.05;;
45232;SDS011;30969;51.052;17.056;2023-04-20T03:45:27;22.55;;;16.20;;
45232;SDS011;30969;51.052;17.056;2023-04-20T03:50:31;23.50;;;16.45;;
45232;SDS011;30969;51.052;17.056;2023-04-20T03:55:36;25.20;;;16.90;;
45232;SDS011;30969;51.052;17.056;2023-04-20T04:00:40;24.63;;;17.02;;
45232;SDS011;30969;51.052;17.056;2023-04-20T04:05:43;22.98;;;15.35;;
45232;SDS011;30969;51.052;17.056;2023-04-20T04:10:49;26.65;;;17.27;;
45232;SDS011;30969;51.052;17.056;2023-04-20T04:15:52;24.27;;;17.50;;
45232;SDS011;30969;51.052;17.056;2023-04-20T04:20:55;23.75;;;17.20;;
45232;SDS011;30969;51.052;17.056;2023-04-20T04:26:00;26.40;;;16.98;;
45232;SDS011;30969;51.052;17.056;2023-04-20T04:31:05;26.25;;;17.17;;
45232;SDS011;30969;51.052;17.056;2023-04-20T04:36:10;25.40;;;17.23;;
45232;SDS011;30969;51.052;17.056;2023-04-20T04:41:17;30.25;;;19.73;;
45232;SDS011;30969;51.052;17.056;2023-04-20T04:46:20;28.92;;;19.30;;
45232;SDS011;30969;51.052;17.056;2023-04-20T04:51:26;27.88;;;18.85;;
45232;SDS011;30969;51.052;17.056;2023-04-20T04:56:32;28.23;;;17.58;;
45232;SDS011;30969;51.052;17.056;2023-04-20T05:01:36;28.13;;;18.25;;
45232;SDS011;30969;51.052;17.056;2023-04-20T05:06:39;32.78;;;19.17;;
45232;SDS011;30969;51.052;17.056;2023-04-20T13:19:54;24.88;;;14.43;;
45232;SDS011;30969;51.052;17.056;2023-04-20T13:24:57;26.75;;;15.02;;
45232;SDS011;30969;51.052;17.056;2023-04-20T13:30:01;25.08;;;15.88;;
45232;SDS011;30969;51.052;17.056;2023-04-20T13:35:08;29.95;;;15.77;;
45232;SDS011;30969;51.052;17.056;2023-04-20T13:40:13;30.38;;;16.73;;
45232;SDS011;30969;51.052;17.056;2023-04-20T13:45:16;28.33;;;15.88;;
45232;SDS011;30969;51.052;17.056;2023-04-20T13:50:21;24.30;;;14.38;;
45232;SDS011;30969;51.052;17.056;2023-04-20T13:55:25;25.35;;;15.60;;
45232;SDS011;30969;51.052;17.056;2023-04-20T14:00:28;23.00;;;14.35;;
45232;SDS011;30969;51.052;17.056;2023-04-20T14:05:33;23.33;;;13.60;;
45232;SDS011;30969;51.052;17.056;2023-04-20T14:10:36;24.17;;;15.13;;
45232;SDS011;30969;51.052;17.056;2023-04-20T14:15:41;24.13;;;15.10;;
45232;SDS011;30969;51.052;17.056;2023-04-20T14:20:46;21.88;;;14.23;;
45232;SDS011;30969;51.052;17.056;2023-04-20T14:25:52;26.05;;;12.82;;
45232;SDS011;30969;51.052;17.056;2023-04-20T14:30:56;22.25;;;9.90;;
45232;SDS011;30969;51.052;17.056;2023-04-20T14:36:02;15.88;;;8.90;;
45232;SDS011;30969;51.052;17.056;2023-04-20T14:41:06;18.70;;;8.43;;
45232;SDS011;30969;51.052;17.056;2023-04-20T14:46:10;13.02;;;7.03;;
45232;SDS011;30969;51.052;17.056;2023-04-20T14:51:15;13.80;;;7.03;;
45232;SDS011;30969;51.052;17.056;2023-04-20T14:56:20;15.30;;;5.68;;
45232;SDS011;30969;51.052;17.056;2023-04-20T15:01:24;14.45;;;5.30;;
45232;SDS011;30969;51.052;17.056;2023-04-20T15:06:29;15.60;;;5.18;;
45232;SDS011;30969;51.052;17.056;2023-04-20T15:11:35;11.38;;;5.45;;
45232;SDS011;30969;51.052;17.056;2023-04-20T15:16:38;16.42;;;4.90;;
45232;SDS011;30969;51.052;17.056;2023-04-20T15:21:43;13.25;;;4.38;;
45232;SDS011;30969;51.052;17.056;2023-04-20T15:26:47;17.98;;;4.43;;
45232;SDS011;30969;51.052;17.056;2023-04-20T15:31:51;10.13;;;3.83;;
45232;SDS011;30969;51.052;17.056;2023-04-20T15:36:55;11.55;;;4.13;;
45232;SDS011;30969;51.052;17.056;2023-04-20T15:41:59;16.90;;;4.38;;
45232;SDS011;30969;51.052;17.056;2023-04-20T15:47:03;9.00;;;4.53;;
45232;SDS011;30969;51.052;17.056;2023-04-20T15:52:08;13.85;;;4.13;;
45232;SDS011;30969;51.052;17.056;2023-04-20T15:57:11;9.75;;;4.78;;
45232;SDS011;30969;51.052;17.056;2023-04-20T16:02:15;9.75;;;4.90;;
45232;SDS011;30969;51.052;17.056;2023-04-20T16:07:20;9.98;;;4.65;;
45232;SDS011;30969;51.052;17.056;2023-04-20T16:12:23;11.75;;;5.13;;
45232;SDS011;30969;51.052;17.056;2023-04-20T16:17:27;14.25;;;6.15;;
45232;SDS011;30969;51.052;17.056;2023-04-20T16:22:32;9.98;;;5.40;;
45232;SDS011;30969;51.052;17.056;2023-04-20T16:27:35;7.22;;;4.82;;
45232;SDS011;30969;51.052;17.056;2023-04-20T16:32:39;13.80;;;5.85;;
45232;SDS011;30969;51.052;17.056;2023-04-20T16:37:45;12.88;;;6.20;;
45232;SDS011;30969;51.052;17.056;2023-04-20T16:42:48;11.45;;;7.28;;
45232;SDS011;30969;51.052;17.056;2023-04-20T16:47:51;15.77;;;5.60;;
45232;SDS011;30969;51.052;17.056;2023-04-20T16:52:56;12.43;;;5.22;;
45232;SDS011;30969;51.052;17.056;2023-04-20T16:58:00;7.97;;;5.22;;
45232;SDS011;30969;51.052;17.056;2023-04-20T17:03:03;10.00;;;5.97;;
45232;SDS011;30969;51.052;17.056;2023-04-20T17:08:12;12.45;;;5.70;;
45232;SDS011;30969;51.052;17.056;2023-04-20T17:13:16;14.32;;;6.13;;
45232;SDS011;30969;51.052;17.056;2023-04-20T17:18:19;14.25;;;7.15;;
45232;SDS011;30969;51.052;17.056;2023-04-20T17:23:24;12.70;;;6.07;;
45232;SDS011;30969;51.052;17.056;2023-04-20T17:28:27;11.15;;;6.30;;
45232;SDS011;30969;51.052;17.056;2023-04-20T17:33:32;13.95;;;6.95;;
45232;SDS011;30969;51.052;17.056;2023-04-20T17:38:36;16.15;;;7.78;;
45232;SDS011;30969;51.052;17.056;2023-04-20T17:43:40;17.42;;;7.55;;
45232;SDS011;30969;51.052;17.056;2023-04-20T17:48:43;22.10;;;7.35;;
45232;SDS011;30969;51.052;17.056;2023-04-20T17:53:48;16.27;;;6.90;;
45232;SDS011;30969;51.052;17.056;2023-04-20T17:58:51;15.20;;;7.03;;
45232;SDS011;30969;51.052;17.056;2023-04-20T18:03:55;14.95;;;6.88;;
45232;SDS011;30969;51.052;17.056;2023-04-20T18:09:00;15.27;;;7.07;;
45232;SDS011;30969;51.052;17.056;2023-04-20T18:14:05;18.15;;;8.80;;
45232;SDS011;30969;51.052;17.056;2023-04-20T18:19:09;17.25;;;7.65;;
45232;SDS011;30969;51.052;17.056;2023-04-20T18:24:14;23.17;;;8.35;;
45232;SDS011;30969;51.052;17.056;2023-04-20T18:29:18;20.02;;;7.95;;
45232;SDS011;30969;51.052;17.056;2023-04-20T18:34:22;16.00;;;8.00;;
45232;SDS011;30969;51.052;17.056;2023-04-20T18:39:31;20.08;;;8.60;;
45232;SDS011;30969;51.052;17.056;2023-04-20T18:44:35;18.20;;;7.95;;
45232;SDS011;30969;51.052;17.056;2023-04-20T18:49:38;16.63;;;9.00;;
45232;SDS011;30969;51.052;17.056;2023-04-20T18:54:43;12.05;;;6.78;;
45232;SDS011;30969;51.052;17.056;2023-04-20T18:59:48;14.93;;;8.75;;
45232;SDS011;30969;51.052;17.056;2023-04-20T19:04:51;17.13;;;8.40;;
45232;SDS011;30969;51.052;17.056;2023-04-20T19:09:56;20.30;;;9.65;;
45232;SDS011;30969;51.052;17.056;2023-04-20T19:15:00;24.45;;;9.07;;
45232;SDS011;30969;51.052;17.056;2023-04-20T19:20:06;25.38;;;9.65;;
45232;SDS011;30969;51.052;17.056;2023-04-20T19:25:12;16.35;;;9.30;;
45232;SDS011;30969;51.052;17.056;2023-04-20T19:30:16;26.20;;;11.57;;
45232;SDS011;30969;51.052;17.056;2023-04-20T19:35:20;19.42;;;9.80;;
45232;SDS011;30969;51.052;17.056;2023-04-20T19:40:25;24.23;;;11.48;;
45232;SDS011;30969;51.052;17.056;2023-04-20T19:45:28;26.65;;;10.32;;
45232;SDS011;30969;51.052;17.056;2023-04-20T19:50:32;24.45;;;10.45;;
45232;SDS011;30969;51.052;17.056;2023-04-20T19:55:37;23.02;;;10.57;;
45232;SDS011;30969;51.052;17.056;2023-04-20T20:00:41;20.77;;;9.90;;
45232;SDS011;30969;51.052;17.056;2023-04-20T20:05:44;24.73;;;10.75;;
45232;SDS011;30969;51.052;17.056;2023-04-20T20:10:49;17.48;;;9.57;;
45232;SDS011;30969;51.052;17.056;2023-04-20T20:15:53;18.23;;;10.50;;
45232;SDS011;30969;51.052;17.056;2023-04-20T20:20:58;25.65;;;11.02;;
45232;SDS011;30969;51.052;17.056;2023-04-20T20:26:03;23.92;;;11.48;;
45232;SDS011;30969;51.052;17.056;2023-04-20T20:31:07;24.92;;;11.80;;
45232;SDS011;30969;51.052;17.056;2023-04-20T20:36:12;25.17;;;14.68;;
45232;SDS011;30969;51.052;17.056;2023-04-20T20:41:21;26.58;;;15.30;;
45232;SDS011;30969;51.052;17.056;2023-04-20T20:46:25;34.83;;;17.50;;
45232;SDS011;30969;51.052;17.056;2023-04-20T20:51:33;37.95;;;20.95;;
45232;SDS011;30969;51.052;17.056;2023-04-20T20:56:39;41.25;;;21.48;;
45232;SDS011;30969;51.052;17.056;2023-04-20T21:01:45;44.35;;;20.23;;
45232;SDS011;30969;51.052;17.056;2023-04-20T21:06:50;33.42;;;18.85;;
45232;SDS011;30969;51.052;17.056;2023-04-20T21:11:56;47.15;;;22.90;;
45232;SDS011;30969;51.052;17.056;2023-04-20T21:17:01;54.35;;;26.70;;
45232;SDS011;30969;51.052;17.056;2023-04-20T21:22:06;53.40;;;25.90;;
45232;SDS011;30969;51.052;17.056;2023-04-20T21:27:12;58.15;;;25.95;;
45232;SDS011;30969;51.052;17.056;2023-04-20T21:32:15;52.45;;;24.00;;
45232;SDS011;30969;51.052;17.056;2023-04-20T21:37:20;61.15;;;28.20;;
45232;SDS011;30969;51.052;17.056;2023-04-20T21:42:25;60.38;;;29.73;;
45232;SDS011;30969;51.052;17.056;2023-04-20T21:47:28;60.90;;;29.45;;
45232;SDS011;30969;51.052;17.056;2023-04-20T21:52:32;57.20;;;27.85;;
45232;SDS011;30969;51.052;17.056;2023-04-20T21:57:37;41.45;;;21.45;;
45232;SDS011;30969;51.052;17.056;2023-04-20T22:02:41;47.38;;;22.33;;
45232;SDS011;30969;51.052;17.056;2023-04-20T22:07:44;53.50;;;25.27;;
45232;SDS011;30969;51.052;17.056;2023-04-20T22:12:49;55.83;;;28.65;;
45232;SDS011;30969;51.052;17.056;2023-04-20T22:17:53;57.28;;;26.45;;
45232;SDS011;30969;51.052;17.056;2023-04-20T22:23:00;47.47;;;24.23;;
45232;SDS011;30969;51.052;17.056;2023-04-20T22:28:04;54.45;;;25.50;;
45232;SDS011;30969;51.052;17.056;2023-04-20T22:33:08;56.33;;;27.60;;
45232;SDS011;30969;51.052;17.056;2023-04-20T22:38:12;64.68;;;31.75;;
45232;SDS011;30969;51.052;17.056;2023-04-20T22:43:17;66.05;;;32.58;;
45232;SDS011;30969;51.052;17.056;2023-04-20T22:48:21;70.63;;;30.95;;
45232;SDS011;30969;51.052;17.056;2023-04-20T22:53:25;65.43;;;32.67;;
45232;SDS011;30969;51.052;17.056;2023-04-20T22:58:31;50.10;;;27.23;;
45232;SDS011;30969;51.052;17.056;2023-04-20T23:03:35;50.35;;;26.10;;
45232;SDS011;30969;51.052;17.056;2023-04-20T23:08:39;41.28;;;21.92;;
45232;SDS011;30969;51.052;17.056;2023-04-20T23:13:43;37.33;;;20.15;;
45232;SDS011;30969;51.052;17.056;2023-04-20T23:18:48;34.92;;;18.08;;
45232;SDS011;30969;51.052;17.056;2023-04-20T23:23:51;47.85;;;19.92;;
45232;SDS011;30969;51.052;17.056;2023-04-20T23:28:58;41.13;;;18.65;;
45232;SDS011;30969;51.052;17.056;2023-04-20T23:34:02;36.40;;;17.52;;
45232;SDS011;30969;51.052;17.056;2023-04-20T23:39:05;39.03;;;18.60;;
45232;SDS011;30969;51.052;17.056;2023-04-20T23:44:10;36.13;;;17.75;;
45232;SDS011;30969;51.052;17.056;2023-04-20T23:49:14;33.78;;;16.55;;
45232;SDS011;30969;51.052;17.056;2023-04-20T23:54:18;30.60;;;15.88;;
45232;SDS011;30969;51.052;17.056;2023-04-20T23:59:23;29.10;;;15.77;;
